createdAt,value
2016-11-18T00:00:40.938Z,10.66
2016-11-18T00:01:40.932Z,10.68
2016-11-18T00:02:40.921Z,10.7
2016-11-18T00:03:40.921Z,10.66
2016-11-18T00:04:40.907Z,10.63
2016-11-18T00:05:40.899Z,10.63
2016-11-18T00:06:40.891Z,10.68
2016-11-18T00:07:40.884Z,10.63
2016-11-18T00:08:40.879Z,10.64
2016-11-18T00:09:40.863Z,10.67
2016-11-18T00:10:40.862Z,10.71
2016-11-18T00:11:40.853Z,10.66
2016-11-18T00:12:40.849Z,10.64
2016-11-18T00:13:40.839Z,10.73
2016-11-18T00:14:40.832Z,10.78
2016-11-18T00:15:40.824Z,10.74
2016-11-18T00:16:40.815Z,10.78
2016-11-18T00:17:40.806Z,10.7
2016-11-18T00:18:40.799Z,10.73
2016-11-18T00:19:40.788Z,10.73
2016-11-18T00:20:40.777Z,10.73
2016-11-18T00:21:41.076Z,10.78
2016-11-18T00:22:40.767Z,10.73
2016-11-18T00:23:40.763Z,10.67
2016-11-18T00:24:40.745Z,10.7
2016-11-18T00:25:40.740Z,10.76
2016-11-18T00:26:40.738Z,10.74
2016-11-18T00:27:40.730Z,10.79
2016-11-18T00:28:40.718Z,10.7
2016-11-18T00:29:40.713Z,10.74
2016-11-18T00:30:40.706Z,10.74
2016-11-18T00:31:40.690Z,10.82
2016-11-18T00:32:41.002Z,10.74
2016-11-18T00:33:40.681Z,10.78
2016-11-18T00:34:40.668Z,10.79
2016-11-18T00:35:40.664Z,10.74
2016-11-18T00:36:40.659Z,10.76
2016-11-18T00:37:40.644Z,10.85
2016-11-18T00:38:40.645Z,10.82
2016-11-18T00:39:40.633Z,10.84
2016-11-18T00:40:40.625Z,10.91
2016-11-18T00:41:40.614Z,10.89
2016-11-18T00:42:40.609Z,10.92
2016-11-18T00:43:40.603Z,10.86
2016-11-18T00:44:40.614Z,10.88
2016-11-18T00:45:40.589Z,10.88
2016-11-18T00:46:40.576Z,10.94
2016-11-18T00:47:40.570Z,10.96
2016-11-18T00:48:40.560Z,10.89
2016-11-18T00:49:40.567Z,10.92
2016-11-18T00:50:40.549Z,10.97
2016-11-18T00:51:40.565Z,10.91
2016-11-18T00:52:40.540Z,10.86
2016-11-18T00:53:40.525Z,10.85
2016-11-18T00:54:40.519Z,10.91
2016-11-18T00:55:40.513Z,10.89
2016-11-18T00:56:40.506Z,10.99
2016-11-18T00:57:40.491Z,11.02
2016-11-18T00:58:40.489Z,11.06
2016-11-18T00:59:40.482Z,10.96
2016-11-18T01:00:40.469Z,10.99
2016-11-18T01:01:40.462Z,10.97
2016-11-18T01:02:40.461Z,11
2016-11-18T01:03:40.449Z,10.96
2016-11-18T01:04:40.435Z,10.91
2016-11-18T01:05:40.431Z,10.92
2016-11-18T01:06:40.458Z,11.04
2016-11-18T01:07:40.415Z,10.97
2016-11-18T01:08:40.410Z,11.02
2016-11-18T01:09:40.405Z,11.06
2016-11-18T01:10:40.390Z,11.04
2016-11-18T01:11:40.384Z,11.04
2016-11-18T01:12:40.380Z,11.04
2016-11-18T01:13:40.374Z,11.04
2016-11-18T01:14:40.360Z,11.06
2016-11-18T01:15:40.359Z,11.07
2016-11-18T01:16:40.349Z,11.03
2016-11-18T01:17:40.341Z,10.88
2016-11-18T01:18:40.332Z,11.03
2016-11-18T01:19:40.328Z,11
2016-11-18T01:20:40.316Z,11
2016-11-18T01:21:40.309Z,11
2016-11-18T01:22:40.305Z,10.94
2016-11-18T01:23:40.602Z,10.94
2016-11-18T01:24:40.287Z,11
2016-11-18T01:25:40.280Z,10.91
2016-11-18T01:26:40.270Z,10.91
2016-11-18T01:27:40.271Z,10.94
2016-11-18T01:28:40.257Z,10.91
2016-11-18T01:29:40.246Z,10.91
2016-11-18T01:30:40.243Z,10.89
2016-11-18T01:31:40.235Z,10.91
2016-11-18T01:32:40.222Z,10.89
2016-11-18T01:33:40.216Z,10.92
2016-11-18T01:34:40.216Z,10.85
2016-11-18T01:35:40.206Z,10.85
2016-11-18T01:36:40.192Z,10.86
2016-11-18T01:37:40.183Z,10.91
2016-11-18T01:38:40.185Z,10.86
2016-11-18T01:39:40.169Z,10.89
2016-11-18T01:40:40.166Z,10.88
2016-11-18T01:41:40.151Z,10.91
2016-11-18T01:42:40.146Z,10.86
2016-11-18T01:43:40.446Z,10.91
2016-11-18T01:44:40.128Z,10.89
2016-11-18T01:45:40.124Z,10.84
2016-11-18T01:46:40.116Z,10.88
2016-11-18T01:47:40.103Z,10.89
2016-11-18T01:48:40.101Z,10.86
2016-11-18T01:49:40.100Z,10.88
2016-11-18T01:50:40.088Z,10.89
2016-11-18T01:51:40.072Z,10.88
2016-11-18T01:52:40.382Z,10.85
2016-11-18T01:53:40.062Z,10.91
2016-11-18T01:54:40.082Z,10.86
2016-11-18T01:55:40.046Z,10.89
2016-11-18T01:56:40.046Z,10.91
2016-11-18T01:57:40.338Z,10.88
2016-11-18T01:58:40.025Z,10.92
2016-11-18T01:59:40.047Z,10.96
2016-11-18T02:00:40.006Z,10.97
2016-11-18T02:01:40.002Z,11
2016-11-18T02:02:40.297Z,10.97
2016-11-18T02:03:39.984Z,10.99
2016-11-18T02:04:39.973Z,11
2016-11-18T02:05:39.974Z,11.03
2016-11-18T02:06:39.957Z,11.03
2016-11-18T02:07:39.955Z,11
2016-11-18T02:08:39.947Z,11.17
2016-11-18T02:09:39.936Z,11.03
2016-11-18T02:10:39.938Z,11.07
2016-11-18T02:11:39.917Z,11.14
2016-11-18T02:12:39.919Z,11.1
2016-11-18T02:13:39.906Z,11.1
2016-11-18T02:14:39.894Z,11.07
2016-11-18T02:15:39.892Z,11.1
2016-11-18T02:16:39.881Z,11.18
2016-11-18T02:17:39.896Z,11.15
2016-11-18T02:18:39.871Z,11.15
2016-11-18T02:19:39.864Z,11.17
2016-11-18T02:20:39.851Z,11.24
2016-11-18T02:21:39.848Z,11.21
2016-11-18T02:22:39.839Z,11.17
2016-11-18T02:23:39.828Z,11.18
2016-11-18T02:24:39.820Z,11.27
2016-11-18T02:25:39.813Z,11.27
2016-11-18T02:26:39.804Z,11.28
2016-11-18T02:27:39.801Z,11.27
2016-11-18T02:28:39.793Z,11.28
2016-11-18T02:29:39.785Z,11.25
2016-11-18T02:30:39.774Z,11.24
2016-11-18T02:31:39.765Z,11.27
2016-11-18T02:32:39.760Z,11.28
2016-11-18T02:33:39.755Z,11.29
2016-11-18T02:34:39.747Z,11.24
2016-11-18T02:35:39.733Z,11.36
2016-11-18T02:36:39.757Z,11.28
2016-11-18T02:37:39.721Z,11.25
2016-11-18T02:38:39.717Z,11.24
2016-11-18T02:39:39.713Z,11.24
2016-11-18T02:40:39.698Z,11.29
2016-11-18T02:41:39.694Z,11.33
2016-11-18T02:42:39.682Z,11.36
2016-11-18T02:43:39.678Z,11.32
2016-11-18T02:44:39.704Z,11.24
2016-11-18T02:45:39.662Z,11.32
2016-11-18T02:46:39.654Z,11.21
2016-11-18T02:47:39.645Z,11.28
2016-11-18T02:48:39.642Z,11.29
2016-11-18T02:49:39.629Z,11.22
2016-11-18T02:50:39.626Z,11.28
2016-11-18T02:51:39.623Z,11.29
2016-11-18T02:52:39.608Z,11.28
2016-11-18T02:53:39.634Z,11.36
2016-11-18T02:54:39.590Z,11.28
2016-11-18T02:55:39.613Z,11.35
2016-11-18T02:56:39.574Z,11.37
2016-11-18T02:57:39.567Z,11.42
2016-11-18T02:58:39.556Z,11.39
2016-11-18T02:59:39.552Z,11.44
2016-11-18T03:00:39.547Z,11.54
2016-11-18T03:01:39.535Z,11.51
2016-11-18T03:02:39.539Z,11.57
2016-11-18T03:03:39.530Z,11.57
2016-11-18T03:04:39.520Z,11.61
2016-11-18T03:05:39.506Z,11.58
2016-11-18T03:06:39.539Z,11.57
2016-11-18T03:07:39.499Z,11.55
2016-11-18T03:08:39.491Z,11.55
2016-11-18T03:09:39.485Z,11.58
2016-11-18T03:10:39.471Z,11.6
2016-11-18T03:11:39.467Z,11.47
2016-11-18T03:12:39.462Z,11.55
2016-11-18T03:13:39.454Z,11.62
2016-11-18T03:14:39.447Z,11.54
2016-11-18T03:15:39.431Z,11.52
2016-11-18T03:16:39.427Z,11.57
2016-11-18T03:17:39.464Z,11.49
2016-11-18T03:18:39.413Z,11.51
2016-11-18T03:19:39.407Z,11.46
2016-11-18T03:20:39.404Z,11.47
2016-11-18T03:21:39.389Z,11.54
2016-11-18T03:22:39.381Z,11.46
2016-11-18T03:23:39.379Z,11.52
2016-11-18T03:24:39.372Z,11.44
2016-11-18T03:25:39.362Z,11.52
2016-11-18T03:26:39.352Z,11.52
2016-11-18T03:27:39.348Z,11.6
2016-11-18T03:28:39.338Z,11.54
2016-11-18T03:29:39.335Z,11.54
2016-11-18T03:30:39.324Z,11.55
2016-11-18T03:31:39.320Z,11.57
2016-11-18T03:32:39.308Z,11.58
2016-11-18T03:33:39.302Z,11.64
2016-11-18T03:34:39.296Z,11.7
2016-11-18T03:35:39.291Z,11.72
2016-11-18T03:36:39.279Z,11.65
2016-11-18T03:37:39.274Z,11.72
2016-11-18T03:38:39.262Z,11.73
2016-11-18T03:39:39.256Z,11.75
2016-11-18T03:40:39.556Z,11.7
2016-11-18T03:41:39.249Z,11.69
2016-11-18T03:42:39.234Z,11.67
2016-11-18T03:43:39.228Z,11.78
2016-11-18T03:44:39.254Z,11.61
2016-11-18T03:45:39.214Z,11.67
2016-11-18T03:46:39.245Z,11.65
2016-11-18T03:47:39.198Z,11.72
2016-11-18T03:48:39.193Z,11.78
2016-11-18T03:49:39.184Z,11.7
2016-11-18T03:50:39.178Z,11.65
2016-11-18T03:51:39.173Z,11.7
2016-11-18T03:52:39.166Z,11.76
2016-11-18T03:53:39.194Z,11.67
2016-11-18T03:54:39.146Z,11.69
2016-11-18T03:55:39.178Z,11.65
2016-11-18T03:56:39.133Z,11.76
2016-11-18T03:57:39.127Z,11.69
2016-11-18T03:58:39.129Z,11.8
2016-11-18T03:59:39.113Z,11.79
2016-11-18T04:00:39.104Z,11.72
2016-11-18T04:01:39.105Z,11.79
2016-11-18T04:02:39.094Z,11.76
2016-11-18T04:03:39.084Z,11.86
2016-11-18T04:04:39.071Z,11.82
2016-11-18T04:05:39.075Z,11.8
2016-11-18T04:06:39.378Z,11.85
2016-11-18T04:07:39.361Z,11.83
2016-11-18T04:08:39.044Z,11.82
2016-11-18T04:09:39.039Z,11.86
2016-11-18T04:10:39.382Z,11.75
2016-11-18T04:11:39.020Z,11.85
2016-11-18T04:12:39.334Z,11.88
2016-11-18T04:13:39.013Z,11.88
2016-11-18T04:14:39.004Z,11.9
2016-11-18T04:15:38.998Z,11.82
2016-11-18T04:16:38.991Z,11.98
2016-11-18T04:17:38.980Z,11.99
2016-11-18T04:18:39.277Z,11.95
2016-11-18T04:19:38.966Z,11.96
2016-11-18T04:20:38.957Z,12.04
2016-11-18T04:21:38.954Z,12.02
2016-11-18T04:22:38.952Z,12.01
2016-11-18T04:23:38.936Z,11.98
2016-11-18T04:24:38.926Z,11.99
2016-11-18T04:25:38.923Z,12.04
2016-11-18T04:26:38.915Z,12.02
2016-11-18T04:27:38.906Z,11.95
2016-11-18T04:28:38.903Z,11.96
2016-11-18T04:29:38.897Z,11.98
2016-11-18T04:30:38.889Z,12.01
2016-11-18T04:31:38.883Z,12.02
2016-11-18T04:32:38.875Z,12.02
2016-11-18T04:33:38.873Z,12.12
2016-11-18T04:34:38.867Z,11.99
2016-11-18T04:35:38.855Z,11.98
2016-11-18T04:36:38.848Z,12.07
2016-11-18T04:37:39.139Z,11.98
2016-11-18T04:38:38.829Z,12.13
2016-11-18T04:39:38.826Z,12.12
2016-11-18T04:40:38.815Z,12.04
2016-11-18T04:41:38.809Z,12.09
2016-11-18T04:42:38.801Z,12.1
2016-11-18T04:43:38.799Z,12.02
2016-11-18T04:44:38.790Z,12.07
2016-11-18T04:45:38.782Z,12.07
2016-11-18T04:46:38.776Z,12.04
2016-11-18T04:47:38.763Z,12.09
2016-11-18T04:48:38.761Z,12.05
2016-11-18T04:49:38.752Z,12.12
2016-11-18T04:50:38.744Z,12.02
2016-11-18T04:51:38.741Z,12.09
2016-11-18T04:52:38.730Z,12.1
2016-11-18T04:53:38.728Z,12.12
2016-11-18T04:54:38.714Z,12.01
2016-11-18T04:55:38.714Z,12.05
2016-11-18T04:56:38.742Z,12.02
2016-11-18T04:57:38.701Z,12.04
2016-11-18T04:58:38.703Z,12.01
2016-11-18T04:59:38.680Z,11.98
2016-11-18T05:00:38.673Z,12.04
2016-11-18T05:01:38.670Z,12.02
2016-11-18T05:02:38.662Z,11.98
2016-11-18T05:03:38.660Z,12.04
2016-11-18T05:04:38.650Z,12.1
2016-11-18T05:05:38.636Z,12.04
2016-11-18T05:06:38.635Z,11.96
2016-11-18T05:07:38.625Z,11.96
2016-11-18T05:08:38.624Z,11.96
2016-11-18T05:09:38.613Z,11.96
2016-11-18T05:10:38.604Z,12.04
2016-11-18T05:11:38.601Z,12.01
2016-11-18T05:12:38.603Z,12.04
2016-11-18T05:13:38.577Z,12.01
2016-11-18T05:14:38.583Z,12.09
2016-11-18T05:15:38.572Z,12.02
2016-11-18T05:16:38.563Z,12.12
2016-11-18T05:17:38.557Z,12.12
2016-11-18T05:18:38.549Z,12.13
2016-11-18T05:19:38.545Z,12.17
2016-11-18T05:20:38.534Z,12.13
2016-11-18T05:21:38.533Z,12.09
2016-11-18T05:22:38.521Z,12.17
2016-11-18T05:23:38.519Z,12.1
2016-11-18T05:24:38.504Z,12.19
2016-11-18T05:25:38.501Z,12.14
2016-11-18T05:26:38.494Z,12.19
2016-11-18T05:27:38.486Z,12.24
2016-11-18T05:28:38.477Z,12.19
2016-11-18T05:29:38.777Z,12.19
2016-11-18T05:30:38.465Z,12.16
2016-11-18T05:31:38.462Z,12.23
2016-11-18T05:32:38.451Z,12.2
2016-11-18T05:33:38.444Z,12.23
2016-11-18T05:34:38.436Z,12.21
2016-11-18T05:35:38.472Z,12.28
2016-11-18T05:36:38.426Z,12.28
2016-11-18T05:37:38.415Z,12.28
2016-11-18T05:38:38.410Z,12.23
2016-11-18T05:39:38.407Z,12.27
2016-11-18T05:40:38.400Z,12.23
2016-11-18T05:41:38.389Z,12.23
2016-11-18T05:42:38.384Z,12.31
2016-11-18T05:43:38.380Z,12.27
2016-11-18T05:44:38.365Z,12.32
2016-11-18T05:45:38.363Z,12.2
2016-11-18T05:46:38.358Z,12.29
2016-11-18T05:47:38.348Z,12.19
2016-11-18T05:48:38.342Z,12.21
2016-11-18T05:49:38.333Z,12.29
2016-11-18T05:50:38.333Z,12.2
2016-11-18T05:51:38.327Z,12.19
2016-11-18T05:52:38.315Z,12.21
2016-11-18T05:53:38.304Z,12.19
2016-11-18T05:54:38.305Z,12.14
2016-11-18T05:55:38.290Z,12.27
2016-11-18T05:56:38.312Z,12.28
2016-11-18T05:57:38.279Z,12.23
2016-11-18T05:58:38.274Z,12.17
2016-11-18T05:59:44.294Z,12.21
2016-11-18T06:00:38.548Z,12.31
2016-11-18T06:01:38.246Z,12.28
2016-11-18T06:02:38.236Z,12.32
2016-11-18T06:03:38.225Z,12.29
2016-11-18T06:04:38.237Z,12.28
2016-11-18T06:05:57.427Z,12.2
2016-11-18T06:06:38.209Z,12.24
2016-11-18T06:07:38.202Z,12.21
2016-11-18T06:08:38.192Z,12.2
2016-11-18T06:09:38.188Z,12.24
2016-11-18T06:10:38.181Z,12.19
2016-11-18T06:11:38.172Z,12.2
2016-11-18T06:12:38.164Z,12.12
2016-11-18T06:13:38.161Z,12.1
2016-11-18T06:14:38.151Z,12.09
2016-11-18T06:15:38.147Z,12.1
2016-11-18T06:16:38.150Z,12.14
2016-11-18T06:17:38.144Z,12.07
2016-11-18T06:18:38.133Z,12.02
2016-11-18T06:19:38.434Z,12.05
2016-11-18T06:20:38.124Z,12.07
2016-11-18T06:21:38.114Z,12.13
2016-11-18T06:22:38.108Z,12.16
2016-11-18T06:23:38.098Z,12.04
2016-11-18T06:24:38.095Z,12.17
2016-11-18T06:25:38.088Z,12.04
2016-11-18T06:26:38.077Z,12.1
2016-11-18T06:27:38.071Z,11.99
2016-11-18T06:28:38.065Z,12.04
2016-11-18T06:29:38.370Z,12.02
2016-11-18T06:30:38.049Z,12.13
2016-11-18T06:31:38.047Z,12.09
2016-11-18T06:32:38.041Z,12.14
2016-11-18T06:33:38.035Z,12.12
2016-11-18T06:34:38.024Z,12.14
2016-11-18T06:35:38.019Z,12.07
2016-11-18T06:36:38.008Z,12.07
2016-11-18T06:37:38.010Z,12.1
2016-11-18T06:38:37.997Z,12.13
2016-11-18T06:39:37.990Z,12.13
2016-11-18T06:40:37.989Z,12.13
2016-11-18T06:41:37.980Z,12.2
2016-11-18T06:42:37.967Z,12.16
2016-11-18T06:43:37.963Z,12.17
2016-11-18T06:44:37.952Z,12.14
2016-11-18T06:45:37.989Z,12.19
2016-11-18T06:46:37.973Z,12.13
2016-11-18T06:47:37.939Z,12.14
2016-11-18T06:48:37.931Z,12.2
2016-11-18T06:49:37.924Z,12.14
2016-11-18T06:50:37.915Z,12.12
2016-11-18T06:51:37.909Z,12.13
2016-11-18T06:52:37.901Z,12.16
2016-11-18T06:53:37.896Z,12.21
2016-11-18T06:54:37.889Z,12.21
2016-11-18T06:55:37.885Z,12.14
2016-11-18T06:56:37.876Z,12.2
2016-11-18T06:57:37.903Z,12.2
2016-11-18T06:58:37.870Z,12.14
2016-11-18T06:59:37.852Z,12.12
2016-11-18T07:00:37.849Z,12.1
2016-11-18T07:01:37.842Z,12.1
2016-11-18T07:02:37.831Z,12.1
2016-11-18T07:03:37.829Z,12.2
2016-11-18T07:04:37.827Z,12.04
2016-11-18T07:05:37.813Z,12.05
2016-11-18T07:06:37.801Z,12.05
2016-11-18T07:07:38.113Z,12.1
2016-11-18T07:08:37.823Z,12.13
2016-11-18T07:09:37.789Z,12.17
2016-11-18T07:10:37.773Z,12.12
2016-11-18T07:11:37.778Z,12.17
2016-11-18T07:12:37.767Z,12.17
2016-11-18T07:13:37.754Z,12.24
2016-11-18T07:14:37.751Z,12.19
2016-11-18T07:15:37.751Z,12.24
2016-11-18T07:16:37.741Z,12.23
2016-11-18T07:17:37.730Z,12.27
2016-11-18T07:18:37.722Z,12.27
2016-11-18T07:19:37.712Z,12.29
2016-11-18T07:20:37.707Z,12.34
2016-11-18T07:21:37.706Z,12.29
2016-11-18T07:22:37.695Z,12.32
2016-11-18T07:23:37.728Z,12.27
2016-11-18T07:24:37.686Z,12.37
2016-11-18T07:25:37.684Z,12.32
2016-11-18T07:26:37.671Z,12.27
2016-11-18T07:27:37.661Z,12.32
2016-11-18T07:28:37.654Z,12.28
2016-11-18T07:29:37.651Z,12.28
2016-11-18T07:30:37.948Z,12.34
2016-11-18T07:31:37.946Z,12.32
2016-11-18T07:32:37.631Z,12.28
2016-11-18T07:33:37.623Z,12.29
2016-11-18T07:34:37.921Z,12.28
2016-11-18T07:35:37.615Z,12.24
2016-11-18T07:36:37.607Z,12.24
2016-11-18T07:37:37.598Z,12.31
2016-11-18T07:38:37.590Z,12.29
2016-11-18T07:39:37.585Z,12.27
2016-11-18T07:40:37.579Z,12.24
2016-11-18T07:41:37.592Z,12.24
2016-11-18T07:42:37.568Z,12.31
2016-11-18T07:43:37.560Z,12.27
2016-11-18T07:44:37.555Z,12.23
2016-11-18T07:45:37.548Z,12.27
2016-11-18T07:46:37.540Z,12.27
2016-11-18T07:47:37.530Z,12.23
2016-11-18T07:48:37.842Z,12.24
2016-11-18T07:49:37.523Z,12.29
2016-11-18T07:50:37.516Z,12.21
2016-11-18T07:51:37.511Z,12.23
2016-11-18T07:52:37.503Z,12.29
2016-11-18T07:53:37.495Z,12.34
2016-11-18T07:54:37.520Z,12.38
2016-11-18T07:55:37.484Z,12.41
2016-11-18T07:56:37.477Z,12.42
2016-11-18T07:57:37.472Z,12.38
2016-11-18T07:58:37.465Z,12.39
2016-11-18T07:59:37.455Z,12.42
2016-11-18T08:00:37.453Z,12.42
2016-11-18T08:01:37.445Z,12.49
2016-11-18T08:02:37.478Z,12.59
2016-11-18T08:03:37.436Z,12.56
2016-11-18T08:04:37.427Z,12.62
2016-11-18T08:05:37.426Z,12.59
2016-11-18T08:06:37.409Z,12.57
2016-11-18T08:07:37.710Z,12.6
2016-11-18T08:08:37.409Z,12.56
2016-11-18T08:09:37.393Z,12.65
2016-11-18T08:10:37.387Z,12.57
2016-11-18T08:11:37.379Z,12.6
2016-11-18T08:12:37.682Z,12.54
2016-11-18T08:13:37.372Z,12.53
2016-11-18T08:14:37.396Z,12.64
2016-11-18T08:15:37.360Z,12.67
2016-11-18T08:16:37.350Z,12.64
2016-11-18T08:17:37.344Z,12.62
2016-11-18T08:18:37.337Z,12.68
2016-11-18T08:19:37.333Z,12.65
2016-11-18T08:20:37.329Z,12.68
2016-11-18T08:21:37.325Z,12.71
2016-11-18T08:22:37.310Z,12.6
2016-11-18T08:23:37.311Z,12.65
2016-11-18T08:24:37.302Z,12.68
2016-11-18T08:25:37.302Z,12.7
2016-11-18T08:26:37.293Z,12.64
2016-11-18T08:27:37.287Z,12.71
2016-11-18T08:28:37.279Z,12.74
2016-11-18T08:29:37.308Z,12.89
2016-11-18T08:30:37.269Z,12.89
2016-11-18T08:31:37.569Z,13.03
2016-11-18T08:32:37.258Z,13.14
2016-11-18T08:33:37.257Z,13.28
2016-11-18T08:34:37.247Z,13.25
2016-11-18T08:35:37.238Z,13.42
2016-11-18T08:36:37.237Z,13.44
2016-11-18T08:37:37.230Z,13.52
2016-11-18T08:38:37.225Z,13.63
2016-11-18T08:39:37.224Z,13.77
2016-11-18T08:40:37.208Z,13.85
2016-11-18T08:41:37.204Z,13.96
2016-11-18T08:42:37.199Z,13.97
2016-11-18T08:43:37.196Z,14.12
2016-11-18T08:44:37.191Z,14.07
2016-11-18T08:45:37.198Z,14.24
2016-11-18T08:46:37.181Z,14.28
2016-11-18T08:47:37.479Z,14.28
2016-11-18T08:48:37.478Z,14.27
2016-11-18T08:49:37.165Z,14.33
2016-11-18T08:50:37.156Z,14.33
2016-11-18T08:51:37.151Z,14.4
2016-11-18T08:52:37.150Z,14.42
2016-11-18T08:53:37.142Z,14.47
2016-11-18T08:54:37.146Z,14.51
2016-11-18T08:55:37.445Z,14.51
2016-11-18T08:56:37.132Z,14.65
2016-11-18T08:57:37.123Z,14.62
2016-11-18T08:58:37.126Z,14.47
2016-11-18T08:59:37.113Z,14.6
2016-11-18T09:00:37.114Z,14.62
2016-11-18T09:01:37.105Z,14.68
2016-11-18T09:02:37.102Z,14.62
2016-11-18T09:03:37.094Z,14.77
2016-11-18T09:04:37.097Z,14.78
2016-11-18T09:05:37.089Z,14.84
2016-11-18T09:06:37.081Z,14.81
2016-11-18T09:07:37.080Z,14.84
2016-11-18T09:08:37.076Z,14.86
2016-11-18T09:09:37.072Z,14.91
2016-11-18T09:10:37.064Z,14.98
2016-11-18T09:11:37.061Z,15.02
2016-11-18T09:12:37.055Z,15.03
2016-11-18T09:13:37.055Z,15.06
2016-11-18T09:14:37.049Z,15.11
2016-11-18T09:15:37.048Z,15.21
2016-11-18T09:16:37.038Z,15.23
2016-11-18T09:17:37.037Z,15.2
2016-11-18T09:18:37.028Z,15.35
2016-11-18T09:19:37.029Z,15.34
2016-11-18T09:20:37.323Z,15.25
2016-11-18T09:21:37.017Z,15.38
2016-11-18T09:22:37.014Z,15.31
2016-11-18T09:23:37.011Z,15.39
2016-11-18T09:24:37.003Z,15.54
2016-11-18T09:25:36.999Z,15.53
2016-11-18T09:26:37.004Z,15.57
2016-11-18T09:27:36.991Z,15.67
2016-11-18T09:28:36.995Z,15.64
2016-11-18T09:29:36.987Z,15.76
2016-11-18T09:30:36.986Z,15.71
2016-11-18T09:31:36.977Z,15.65
2016-11-18T09:32:36.972Z,15.67
2016-11-18T09:33:36.972Z,15.62
2016-11-18T09:34:36.963Z,15.68
2016-11-18T09:35:36.963Z,15.68
2016-11-18T09:36:36.956Z,15.69
2016-11-18T09:37:36.957Z,15.67
2016-11-18T09:38:36.959Z,15.67
2016-11-18T09:39:36.953Z,15.6
2016-11-18T09:40:36.940Z,15.68
2016-11-18T09:41:36.940Z,15.57
2016-11-18T09:42:37.240Z,15.65
2016-11-18T09:43:36.933Z,15.59
2016-11-18T09:44:36.929Z,15.69
2016-11-18T09:45:36.927Z,15.72
2016-11-18T09:46:36.920Z,15.64
2016-11-18T09:47:36.915Z,15.62
2016-11-18T09:48:36.911Z,15.62
2016-11-18T09:49:36.907Z,15.67
2016-11-18T09:50:36.903Z,15.74
2016-11-18T09:51:36.904Z,15.75
2016-11-18T09:52:36.896Z,15.75
2016-11-18T09:53:36.891Z,15.72
2016-11-18T09:54:36.890Z,15.75
2016-11-18T09:55:36.885Z,15.72
2016-11-18T09:56:36.881Z,15.86
2016-11-18T09:57:36.880Z,15.96
2016-11-18T09:58:36.877Z,16.05
2016-11-18T09:59:36.869Z,16
2016-11-18T10:00:36.863Z,16.07
2016-11-18T10:01:36.863Z,16.21
2016-11-18T10:02:36.862Z,16.3
2016-11-18T10:03:36.854Z,16.3
2016-11-18T10:04:36.854Z,16.31
2016-11-18T10:05:36.847Z,16.38
2016-11-18T10:06:36.848Z,16.31
2016-11-18T10:07:36.837Z,16.31
2016-11-18T10:08:36.844Z,16.27
2016-11-18T10:09:36.835Z,16.3
2016-11-18T10:10:36.830Z,16.2
2016-11-18T10:11:36.826Z,16.21
2016-11-18T10:12:36.822Z,16.25
2016-11-18T10:13:36.823Z,16.24
2016-11-18T10:14:36.820Z,16.17
2016-11-18T10:15:36.819Z,16.08
2016-11-18T10:16:36.813Z,16.2
2016-11-18T10:17:36.815Z,16.08
2016-11-18T10:18:36.812Z,16.09
2016-11-18T10:19:36.798Z,16.05
2016-11-18T10:20:36.798Z,15.96
2016-11-18T10:21:36.794Z,16.07
2016-11-18T10:22:36.789Z,16.01
2016-11-18T10:23:36.787Z,15.94
2016-11-18T10:24:36.785Z,15.94
2016-11-18T10:25:36.778Z,15.87
2016-11-18T10:26:36.778Z,15.9
2016-11-18T10:27:36.769Z,15.94
2016-11-18T10:28:36.764Z,15.96
2016-11-18T10:29:36.762Z,15.97
2016-11-18T10:30:36.766Z,15.86
2016-11-18T10:31:36.756Z,15.92
2016-11-18T10:32:36.752Z,15.83
2016-11-18T10:33:36.747Z,15.8
2016-11-18T10:34:36.743Z,15.68
2016-11-18T10:35:36.744Z,15.57
2016-11-18T10:36:37.046Z,15.46
2016-11-18T10:37:36.734Z,15.38
2016-11-18T10:38:36.736Z,15.17
2016-11-18T10:39:36.725Z,14.81
2016-11-18T10:40:36.721Z,14.37
2016-11-18T10:41:36.714Z,14.07
2016-11-18T10:42:36.711Z,13.66
2016-11-18T10:43:36.707Z,13.23
2016-11-18T10:44:36.702Z,13.1
2016-11-18T10:45:36.695Z,12.89
2016-11-18T10:46:36.696Z,12.72
2016-11-18T10:47:36.686Z,12.52
2016-11-18T10:48:36.687Z,12.37
2016-11-18T10:49:36.679Z,12.14
2016-11-18T10:50:36.672Z,11.99
2016-11-18T10:51:36.679Z,11.95
2016-11-18T10:52:36.661Z,11.85
2016-11-18T10:53:36.663Z,11.78
2016-11-18T10:54:36.657Z,11.72
2016-11-18T10:55:36.645Z,11.6
2016-11-18T10:56:36.640Z,11.47
2016-11-18T10:57:36.642Z,11.51
2016-11-18T10:58:36.632Z,11.27
2016-11-18T10:59:36.622Z,11.33
2016-11-18T11:00:36.615Z,11.25
2016-11-18T11:01:36.610Z,11.27
2016-11-18T11:02:36.604Z,11.22
2016-11-18T11:03:36.908Z,11.11
2016-11-18T11:04:36.593Z,11.06
2016-11-18T11:05:36.582Z,11.18
2016-11-18T11:06:36.884Z,11.15
2016-11-18T11:07:36.876Z,11.1
2016-11-18T11:08:36.570Z,11.11
2016-11-18T11:09:36.555Z,11.1
2016-11-18T11:10:36.551Z,11.11
2016-11-18T11:11:36.546Z,11.07
2016-11-18T11:12:36.538Z,11.11
2016-11-18T11:13:36.536Z,11.04
2016-11-18T11:14:36.526Z,11.02
2016-11-18T11:15:36.515Z,10.96
2016-11-18T11:16:36.514Z,10.97
2016-11-18T11:17:36.503Z,10.99
2016-11-18T11:18:36.801Z,10.92
2016-11-18T11:19:36.489Z,11.03
2016-11-18T11:20:36.482Z,10.97
2016-11-18T11:21:36.474Z,10.89
2016-11-18T11:22:36.465Z,11.04
2016-11-18T11:23:36.465Z,11.15
2016-11-18T11:24:36.455Z,11.15
2016-11-18T11:25:36.451Z,11.27
2016-11-18T11:26:36.446Z,11.22
2016-11-18T11:27:36.432Z,11.32
2016-11-18T11:28:36.439Z,11.37
2016-11-18T11:29:36.423Z,11.39
2016-11-18T11:30:36.416Z,11.47
2016-11-18T11:31:36.404Z,11.54
2016-11-18T11:32:36.399Z,11.64
2016-11-18T11:33:36.394Z,11.52
2016-11-18T11:34:36.384Z,11.52
2016-11-18T11:35:36.376Z,11.52
2016-11-18T11:36:36.375Z,11.52
2016-11-18T11:37:36.374Z,11.61
2016-11-18T11:38:36.360Z,11.47
2016-11-18T11:39:36.354Z,11.51
2016-11-18T11:40:36.348Z,11.49
2016-11-18T11:41:36.336Z,11.37
2016-11-18T11:42:36.333Z,11.4
2016-11-18T11:43:36.323Z,11.4
2016-11-18T11:44:36.320Z,11.28
2016-11-18T11:45:36.313Z,11.27
2016-11-18T11:46:36.302Z,11.27
2016-11-18T11:47:36.300Z,11.19
2016-11-18T11:48:36.291Z,11.14
2016-11-18T11:49:36.284Z,11.04
2016-11-18T11:50:36.282Z,11.06
2016-11-18T11:51:36.274Z,11.09
2016-11-18T11:52:36.268Z,11.09
2016-11-18T11:53:36.261Z,11.03
2016-11-18T11:54:36.249Z,11.02
2016-11-18T11:55:36.246Z,11.04
2016-11-18T11:56:36.244Z,10.86
2016-11-18T11:57:36.231Z,10.91
2016-11-18T11:58:36.222Z,10.86
2016-11-18T11:59:36.214Z,10.84
2016-11-18T12:00:36.210Z,10.78
2016-11-18T12:01:36.207Z,10.74
2016-11-18T12:02:36.198Z,10.66
2016-11-18T12:03:36.192Z,10.67
2016-11-18T12:04:36.176Z,10.66
2016-11-18T12:05:36.173Z,10.66
2016-11-18T12:06:36.172Z,10.6
2016-11-18T12:07:36.158Z,10.64
2016-11-18T12:08:36.145Z,10.61
2016-11-18T12:09:36.147Z,10.6
2016-11-18T12:10:36.134Z,10.56
2016-11-18T12:11:36.134Z,10.61
2016-11-18T12:12:36.116Z,10.47
2016-11-18T12:13:36.115Z,10.48
2016-11-18T12:14:36.113Z,10.45
2016-11-18T12:15:36.102Z,10.44
2016-11-18T12:16:36.091Z,10.44
2016-11-18T12:17:36.079Z,10.42
2016-11-18T12:18:36.078Z,10.47
2016-11-18T12:19:36.072Z,10.42
2016-11-18T12:20:36.370Z,10.42
2016-11-18T12:21:36.051Z,10.38
2016-11-18T12:22:36.044Z,10.34
2016-11-18T12:23:36.044Z,10.33
2016-11-18T12:24:36.038Z,10.3
2016-11-18T12:25:36.029Z,10.29
2016-11-18T12:26:36.014Z,10.27
2016-11-18T12:27:36.008Z,10.3
2016-11-18T12:28:35.998Z,10.23
2016-11-18T12:29:36.026Z,10.18
2016-11-18T12:30:35.988Z,10.22
2016-11-18T12:31:35.982Z,10.12
2016-11-18T12:32:35.980Z,10.11
2016-11-18T12:33:35.968Z,10.11
2016-11-18T12:34:35.965Z,10.08
2016-11-18T12:35:35.947Z,10.05
2016-11-18T12:36:35.941Z,10.05
2016-11-18T12:37:35.958Z,9.99
2016-11-18T12:38:35.922Z,10.02
2016-11-18T12:39:35.916Z,10.02
2016-11-18T12:40:35.914Z,9.94
2016-11-18T12:41:35.903Z,9.97
2016-11-18T12:42:36.200Z,9.97
2016-11-18T12:43:35.891Z,10.07
2016-11-18T12:44:35.910Z,10.04
2016-11-18T12:45:35.864Z,10.01
2016-11-18T12:46:35.862Z,10.14
2016-11-18T12:47:36.171Z,10.11
2016-11-18T12:48:35.849Z,10.08
2016-11-18T12:49:35.840Z,10.09
2016-11-18T12:50:36.115Z,10.12
2016-11-18T12:51:35.821Z,10.08
2016-11-18T12:52:35.816Z,10.09
2016-11-18T12:53:35.804Z,10.18
2016-11-18T12:54:35.803Z,10.15
2016-11-18T12:55:35.790Z,10.23